Date,TemperatureHighF,TemperatureAvgF,TemperatureLowF,DewpointHighF,DewpointAvgF,DewpointLowF,HumidityHigh,HumidityAvg,HumidityLow,PressureMaxIn,PressureMinIn,WindSpeedMaxMPH,WindSpeedAvgMPH,GustSpeedMaxMPH,PrecipitationSumIn
2013-10-1,84.7,68.1,56.3,66.9,61.3,55.2,97,81,46,30.23,30.11,5,0,5,0.00
2013-10-2,84.0,67.6,61.2,69.3,62.9,60.3,97,87,55,30.25,30.15,5,0,5,0.00
2013-10-3,86.5,69.5,58.9,68.0,62.3,58.1,97,81,46,30.24,30.10,0,0,5,0.00
2013-10-4,85.1,71.1,61.8,70.8,65.2,60.9,97,84,56,30.23,30.15,1,0,6,0.00
2013-10-5,89.0,72.6,63.1,70.6,65.9,61.9,97,82,49,30.18,30.00,1,0,6,0.00
2013-10-6,81.8,73.2,57.5,70.1,65.6,53.9,94,78,62,30.02,29.89,10,1,11,0.27
2013-10-7,72.5,61.1,53.2,56.6,51.8,46.8,96,74,43,30.16,29.98,10,1,10,0.01
2013-10-8,77.9,62.3,49.1,61.0,52.4,45.9,92,73,45,30.21,30.13,7,0,8,0.00
2013-10-9,80.3,65.6,54.7,63.2,57.7,53.3,96,79,47,30.28,30.17,5,0,5,0.00
2013-10-10,82.6,65.2,56.5,64.5,58.9,55.1,97,82,46,30.25,30.11,4,0,4,0.00
2013-10-11,82.8,62.3,50.8,60.5,55.2,50.0,98,81,38,30.21,30.08,5,0,5,0.00
2013-10-12,83.4,63.4,50.8,62.3,55.6,50.0,98,80,35,30.22,30.12,9,0,9,0.00
2013-10-13,83.6,65.5,52.2,63.0,56.6,51.4,97,77,37,30.32,30.21,5,0,5,0.00
2013-10-14,82.6,66.3,53.6,65.1,59.4,52.8,97,81,48,30.32,30.16,7,0,7,0.01
2013-10-15,72.7,66.1,60.9,62.9,60.3,58.3,95,83,61,30.23,30.12,5,0,5,0.00
2013-10-16,72.1,65.1,60.7,64.4,61.4,58.9,96,88,70,30.15,30.00,4,0,4,0.13
2013-10-17,68.9,63.4,50.5,67.7,60.0,49.1,97,89,72,30.09,29.95,9,1,9,0.31
2013-10-18,70.6,55.6,48.2,55.0,50.2,47.4,97,84,50,30.19,30.04,5,0,5,0.00
2013-10-19,70.8,56.0,43.9,56.1,50.7,42.6,96,84,54,30.15,30.00,9,1,9,0.00
2013-10-20,68.9,49.6,38.0,49.1,42.3,37.0,97,80,37,30.23,30.11,4,0,4,0.00
2013-10-21,72.3,52.0,38.0,53.5,43.1,37.2,97,77,33,30.26,30.09,5,0,5,0.01
2013-10-22,63.1,51.9,48.2,53.3,49.5,47.1,97,92,68,30.13,30.06,4,0,4,0.00
2013-10-23,57.8,44.3,35.6,41.9,37.0,33.2,96,78,41,30.32,30.14,3,0,19,0.00
2013-10-24,59.9,44.3,27.9,44.8,34.8,25.6,92,71,42,30.58,30.25,3,0,11,0.00
2013-10-25,58.1,39.0,25.8,36.1,28.1,22.2,96,70,28,30.57,30.42,1,0,10,0.00
2013-10-26,59.8,51.3,44.1,46.9,40.0,25.7,90,69,27,30.42,30.20,1,0,9,0.00
2013-10-27,62.3,54.9,48.8,55.3,51.6,47.4,97,90,66,30.35,30.19,0,0,4,0.04
2013-10-28,64.3,56.9,53.1,58.1,55.1,52.2,98,94,79,30.42,30.29,1,0,5,0.04
2013-10-29,74.4,64.6,56.3,60.9,58.0,55.2,96,80,57,30.39,30.29,4,0,4,0.00
2013-10-30,80.1,63.1,53.5,61.1,56.5,52.5,98,82,39,30.38,30.20,5,0,5,0.00
2013-10-31,73.2,65.4,58.7,66.1,61.1,57.0,95,87,69,30.20,29.79,12,2,12,0.16